sensor_id;sensor_type;location;lat;lon;timestamp;P1;durP1;ratioP1;P2;durP2;ratioP2
7471;SDS011;3777;48.722;8.110;2023-05-10T00:02:01;1.50;;;1.37;;
7471;SDS011;3777;48.722;8.110;2023-05-10T00:04:28;1.70;;;1.40;;
7471;SDS011;3777;48.722;8.110;2023-05-10T00:06:56;1.83;;;1.60;;
7471;SDS011;3777;48.722;8.110;2023-05-10T00:09:23;1.70;;;1.60;;
7471;SDS011;3777;48.722;8.110;2023-05-10T00:11:50;1.70;;;1.60;;
7471;SDS011;3777;48.722;8.110;2023-05-10T00:14:17;2.47;;;1.60;;
7471;SDS011;3777;48.722;8.110;2023-05-10T00:16:44;1.93;;;1.50;;
7471;SDS011;3777;48.722;8.110;2023-05-10T00:19:11;1.30;;;1.20;;
7471;SDS011;3777;48.722;8.110;2023-05-10T00:21:38;1.40;;;1.30;;
7471;SDS011;3777;48.722;8.110;2023-05-10T00:24:06;1.50;;;1.40;;
7471;SDS011;3777;48.722;8.110;2023-05-10T00:26:33;2.90;;;1.30;;
7471;SDS011;3777;48.722;8.110;2023-05-10T00:29:00;1.40;;;1.30;;
7471;SDS011;3777;48.722;8.110;2023-05-10T00:31:27;1.37;;;1.27;;
7471;SDS011;3777;48.722;8.110;2023-05-10T00:33:54;3.40;;;1.30;;
7471;SDS011;3777;48.722;8.110;2023-05-10T00:36:21;2.10;;;1.30;;
7471;SDS011;3777;48.722;8.110;2023-05-10T00:38:48;1.40;;;1.30;;
7471;SDS011;3777;48.722;8.110;2023-05-10T00:41:17;1.50;;;1.40;;
7471;SDS011;3777;48.722;8.110;2023-05-10T00:43:44;1.70;;;1.60;;
7471;SDS011;3777;48.722;8.110;2023-05-10T00:46:11;2.90;;;1.50;;
7471;SDS011;3777;48.722;8.110;2023-05-10T00:48:38;4.13;;;1.70;;
7471;SDS011;3777;48.722;8.110;2023-05-10T00:51:05;1.80;;;1.70;;
7471;SDS011;3777;48.722;8.110;2023-05-10T00:53:32;1.77;;;1.60;;
7471;SDS011;3777;48.722;8.110;2023-05-10T00:56:01;2.43;;;1.80;;
7471;SDS011;3777;48.722;8.110;2023-05-10T00:58:29;2.10;;;1.80;;
7471;SDS011;3777;48.722;8.110;2023-05-10T01:00:56;2.20;;;1.70;;
7471;SDS011;3777;48.722;8.110;2023-05-10T01:03:24;2.10;;;1.90;;
7471;SDS011;3777;48.722;8.110;2023-05-10T01:05:51;3.90;;;2.23;;
7471;SDS011;3777;48.722;8.110;2023-05-10T01:08:18;2.00;;;1.80;;
7471;SDS011;3777;48.722;8.110;2023-05-10T01:10:45;3.97;;;2.07;;
7471;SDS011;3777;48.722;8.110;2023-05-10T01:13:14;2.37;;;2.17;;
7471;SDS011;3777;48.722;8.110;2023-05-10T01:15:55;2.57;;;1.93;;
7471;SDS011;3777;48.722;8.110;2023-05-10T01:18:22;2.50;;;2.20;;
7471;SDS011;3777;48.722;8.110;2023-05-10T01:20:53;2.33;;;2.13;;
7471;SDS011;3777;48.722;8.110;2023-05-10T01:23:44;3.80;;;2.37;;
7471;SDS011;3777;48.722;8.110;2023-05-10T01:26:29;4.20;;;2.20;;
7471;SDS011;3777;48.722;8.110;2023-05-10T01:32:22;2.50;;;2.30;;
7471;SDS011;3777;48.722;8.110;2023-05-10T01:34:54;2.67;;;1.93;;
7471;SDS011;3777;48.722;8.110;2023-05-10T01:37:29;5.03;;;2.40;;
7471;SDS011;3777;48.722;8.110;2023-05-10T01:40:02;2.17;;;2.00;;
7471;SDS011;3777;48.722;8.110;2023-05-10T01:42:36;2.97;;;2.10;;
7471;SDS011;3777;48.722;8.110;2023-05-10T01:45:11;3.63;;;2.10;;
7471;SDS011;3777;48.722;8.110;2023-05-10T01:47:46;3.40;;;2.30;;
7471;SDS011;3777;48.722;8.110;2023-05-10T01:50:17;2.27;;;2.00;;
7471;SDS011;3777;48.722;8.110;2023-05-10T01:52:53;3.97;;;2.30;;
7471;SDS011;3777;48.722;8.110;2023-05-10T01:55:23;2.27;;;2.07;;
7471;SDS011;3777;48.722;8.110;2023-05-10T01:57:55;2.37;;;2.17;;
7471;SDS011;3777;48.722;8.110;2023-05-10T02:00:26;2.27;;;2.07;;
7471;SDS011;3777;48.722;8.110;2023-05-10T02:02:56;2.20;;;2.00;;
7471;SDS011;3777;48.722;8.110;2023-05-10T02:05:24;3.73;;;1.90;;
7471;SDS011;3777;48.722;8.110;2023-05-10T02:07:51;3.53;;;1.87;;
7471;SDS011;3777;48.722;8.110;2023-05-10T02:10:18;2.37;;;2.17;;
7471;SDS011;3777;48.722;8.110;2023-05-10T02:12:47;2.30;;;2.00;;
7471;SDS011;3777;48.722;8.110;2023-05-10T02:15:17;3.20;;;2.00;;
7471;SDS011;3777;48.722;8.110;2023-05-10T02:17:49;2.60;;;2.00;;
7471;SDS011;3777;48.722;8.110;2023-05-10T02:20:18;2.93;;;2.50;;
7471;SDS011;3777;48.722;8.110;2023-05-10T02:22:46;6.20;;;2.47;;
7471;SDS011;3777;48.722;8.110;2023-05-10T02:25:17;2.80;;;2.10;;
7471;SDS011;3777;48.722;8.110;2023-05-10T02:27:45;3.43;;;2.30;;
7471;SDS011;3777;48.722;8.110;2023-05-10T02:30:13;2.33;;;2.13;;
7471;SDS011;3777;48.722;8.110;2023-05-10T02:32:42;2.50;;;2.10;;
7471;SDS011;3777;48.722;8.110;2023-05-10T02:35:10;2.50;;;2.30;;
7471;SDS011;3777;48.722;8.110;2023-05-10T02:37:39;3.83;;;2.07;;
7471;SDS011;3777;48.722;8.110;2023-05-10T02:40:07;2.73;;;1.80;;
7471;SDS011;3777;48.722;8.110;2023-05-10T02:42:37;2.13;;;1.87;;
7471;SDS011;3777;48.722;8.110;2023-05-10T02:45:09;1.93;;;1.80;;
7471;SDS011;3777;48.722;8.110;2023-05-10T02:47:38;2.90;;;1.83;;
7471;SDS011;3777;48.722;8.110;2023-05-10T02:50:05;2.03;;;1.93;;
7471;SDS011;3777;48.722;8.110;2023-05-10T02:52:36;5.43;;;2.10;;
7471;SDS011;3777;48.722;8.110;2023-05-10T02:55:09;2.97;;;2.07;;
7471;SDS011;3777;48.722;8.110;2023-05-10T02:57:42;2.60;;;2.10;;
7471;SDS011;3777;48.722;8.110;2023-05-10T03:00:13;2.40;;;2.00;;
7471;SDS011;3777;48.722;8.110;2023-05-10T03:02:41;2.47;;;2.00;;
7471;SDS011;3777;48.722;8.110;2023-05-10T03:05:08;2.97;;;2.03;;
7471;SDS011;3777;48.722;8.110;2023-05-10T03:07:35;4.03;;;2.40;;
7471;SDS011;3777;48.722;8.110;2023-05-10T03:10:04;2.67;;;2.47;;
7471;SDS011;3777;48.722;8.110;2023-05-10T03:12:37;3.40;;;2.70;;
7471;SDS011;3777;48.722;8.110;2023-05-10T03:15:13;2.80;;;2.60;;
7471;SDS011;3777;48.722;8.110;2023-05-10T03:17:52;5.03;;;2.73;;
7471;SDS011;3777;48.722;8.110;2023-05-10T03:20:23;2.70;;;2.50;;
7471;SDS011;3777;48.722;8.110;2023-05-10T03:22:55;4.87;;;2.43;;
7471;SDS011;3777;48.722;8.110;2023-05-10T03:25:28;2.80;;;2.50;;
7471;SDS011;3777;48.722;8.110;2023-05-10T03:27:57;2.70;;;2.50;;
7471;SDS011;3777;48.722;8.110;2023-05-10T03:30:27;3.60;;;2.70;;
7471;SDS011;3777;48.722;8.110;2023-05-10T03:32:55;3.60;;;2.40;;
7471;SDS011;3777;48.722;8.110;2023-05-10T03:35:22;2.70;;;2.50;;
7471;SDS011;3777;48.722;8.110;2023-05-10T03:37:50;3.80;;;2.30;;
7471;SDS011;3777;48.722;8.110;2023-05-10T03:40:17;3.87;;;2.30;;
7471;SDS011;3777;48.722;8.110;2023-05-10T03:42:45;2.57;;;2.20;;
7471;SDS011;3777;48.722;8.110;2023-05-10T03:45:12;4.80;;;2.43;;
7471;SDS011;3777;48.722;8.110;2023-05-10T03:47:42;2.80;;;2.50;;
7471;SDS011;3777;48.722;8.110;2023-05-10T03:50:09;3.33;;;2.20;;
7471;SDS011;3777;48.722;8.110;2023-05-10T03:52:36;3.20;;;2.20;;
7471;SDS011;3777;48.722;8.110;2023-05-10T03:55:04;2.83;;;2.40;;
7471;SDS011;3777;48.722;8.110;2023-05-10T03:57:32;2.37;;;2.00;;
7471;SDS011;3777;48.722;8.110;2023-05-10T04:00:00;5.07;;;2.30;;
7471;SDS011;3777;48.722;8.110;2023-05-10T04:02:27;2.77;;;2.17;;
7471;SDS011;3777;48.722;8.110;2023-05-10T04:04:55;2.63;;;2.20;;
7471;SDS011;3777;48.722;8.110;2023-05-10T04:07:22;2.47;;;2.27;;
7471;SDS011;3777;48.722;8.110;2023-05-10T04:09:49;3.43;;;2.47;;
7471;SDS011;3777;48.722;8.110;2023-05-10T04:12:16;2.83;;;2.40;;
7471;SDS011;3777;48.722;8.110;2023-05-10T04:14:43;2.30;;;2.10;;
7471;SDS011;3777;48.722;8.110;2023-05-10T04:17:11;2.60;;;2.27;;
7471;SDS011;3777;48.722;8.110;2023-05-10T04:19:38;2.77;;;2.00;;
7471;SDS011;3777;48.722;8.110;2023-05-10T04:22:05;2.20;;;2.00;;
7471;SDS011;3777;48.722;8.110;2023-05-10T04:24:32;3.30;;;2.50;;
7471;SDS011;3777;48.722;8.110;2023-05-10T04:26:59;3.43;;;2.43;;
7471;SDS011;3777;48.722;8.110;2023-05-10T04:29:26;3.10;;;2.40;;
7471;SDS011;3777;48.722;8.110;2023-05-10T04:31:53;2.60;;;2.40;;
7471;SDS011;3777;48.722;8.110;2023-05-10T04:34:23;2.53;;;2.33;;
7471;SDS011;3777;48.722;8.110;2023-05-10T04:36:50;2.57;;;2.37;;
7471;SDS011;3777;48.722;8.110;2023-05-10T04:39:17;2.93;;;2.63;;
7471;SDS011;3777;48.722;8.110;2023-05-10T04:41:44;3.33;;;2.70;;
7471;SDS011;3777;48.722;8.110;2023-05-10T04:44:11;3.10;;;2.80;;
7471;SDS011;3777;48.722;8.110;2023-05-10T04:46:38;4.00;;;3.20;;
7471;SDS011;3777;48.722;8.110;2023-05-10T04:49:05;5.53;;;3.13;;
7471;SDS011;3777;48.722;8.110;2023-05-10T04:51:33;3.70;;;3.10;;
7471;SDS011;3777;48.722;8.110;2023-05-10T04:54:00;3.87;;;3.00;;
7471;SDS011;3777;48.722;8.110;2023-05-10T04:56:27;2.80;;;2.60;;
7471;SDS011;3777;48.722;8.110;2023-05-10T04:58:54;3.63;;;3.10;;
7471;SDS011;3777;48.722;8.110;2023-05-10T05:01:21;3.47;;;2.63;;
7471;SDS011;3777;48.722;8.110;2023-05-10T05:03:48;3.10;;;2.80;;
7471;SDS011;3777;48.722;8.110;2023-05-10T05:06:15;5.03;;;2.90;;
7471;SDS011;3777;48.722;8.110;2023-05-10T05:08:43;4.13;;;2.90;;
7471;SDS011;3777;48.722;8.110;2023-05-10T05:11:10;2.77;;;2.53;;
7471;SDS011;3777;48.722;8.110;2023-05-10T05:13:37;4.70;;;2.83;;
7471;SDS011;3777;48.722;8.110;2023-05-10T05:16:05;3.53;;;2.77;;
7471;SDS011;3777;48.722;8.110;2023-05-10T05:18:32;5.03;;;3.20;;
7471;SDS011;3777;48.722;8.110;2023-05-10T05:20:59;3.13;;;2.60;;
7471;SDS011;3777;48.722;8.110;2023-05-10T05:23:26;5.10;;;2.77;;
7471;SDS011;3777;48.722;8.110;2023-05-10T05:25:54;3.63;;;2.83;;
7471;SDS011;3777;48.722;8.110;2023-05-10T05:28:21;4.10;;;2.60;;
7471;SDS011;3777;48.722;8.110;2023-05-10T05:30:48;2.90;;;2.40;;
7471;SDS011;3777;48.722;8.110;2023-05-10T05:33:15;5.17;;;2.30;;
7471;SDS011;3777;48.722;8.110;2023-05-10T05:35:42;2.37;;;2.17;;
7471;SDS011;3777;48.722;8.110;2023-05-10T05:38:12;2.80;;;2.40;;
7471;SDS011;3777;48.722;8.110;2023-05-10T05:40:39;2.73;;;2.30;;
7471;SDS011;3777;48.722;8.110;2023-05-10T05:43:08;3.07;;;2.07;;
7471;SDS011;3777;48.722;8.110;2023-05-10T05:45:34;2.83;;;2.50;;
7471;SDS011;3777;48.722;8.110;2023-05-10T05:48:01;2.40;;;2.10;;
7471;SDS011;3777;48.722;8.110;2023-05-10T05:50:29;3.97;;;2.00;;
7471;SDS011;3777;48.722;8.110;2023-05-10T05:52:56;2.50;;;2.30;;
7471;SDS011;3777;48.722;8.110;2023-05-10T05:55:23;5.23;;;3.37;;
7471;SDS011;3777;48.722;8.110;2023-05-10T05:57:50;2.73;;;2.30;;
7471;SDS011;3777;48.722;8.110;2023-05-10T06:00:20;4.30;;;2.37;;
7471;SDS011;3777;48.722;8.110;2023-05-10T06:02:47;3.50;;;2.30;;
7471;SDS011;3777;48.722;8.110;2023-05-10T06:05:14;3.90;;;2.23;;
7471;SDS011;3777;48.722;8.110;2023-05-10T06:07:41;2.40;;;2.00;;
7471;SDS011;3777;48.722;8.110;2023-05-10T06:10:08;3.93;;;1.90;;
7471;SDS011;3777;48.722;8.110;2023-05-10T06:12:35;3.40;;;2.07;;
7471;SDS011;3777;48.722;8.110;2023-05-10T06:15:02;2.10;;;1.80;;
7471;SDS011;3777;48.722;8.110;2023-05-10T06:17:31;3.73;;;1.90;;
7471;SDS011;3777;48.722;8.110;2023-05-10T06:19:58;3.93;;;1.87;;
7471;SDS011;3777;48.722;8.110;2023-05-10T06:22:25;3.03;;;1.90;;
7471;SDS011;3777;48.722;8.110;2023-05-10T06:24:52;3.57;;;2.20;;
7471;SDS011;3777;48.722;8.110;2023-05-10T06:27:19;3.00;;;2.00;;
7471;SDS011;3777;48.722;8.110;2023-05-10T06:29:46;3.10;;;1.90;;
7471;SDS011;3777;48.722;8.110;2023-05-10T06:32:13;2.10;;;1.90;;
7471;SDS011;3777;48.722;8.110;2023-05-10T06:34:41;3.43;;;2.00;;
7471;SDS011;3777;48.722;8.110;2023-05-10T06:37:09;2.87;;;1.90;;
7471;SDS011;3777;48.722;8.110;2023-05-10T06:39:37;4.03;;;2.00;;
7471;SDS011;3777;48.722;8.110;2023-05-10T06:42:04;2.37;;;1.90;;
7471;SDS011;3777;48.722;8.110;2023-05-10T06:44:31;2.40;;;1.93;;
7471;SDS011;3777;48.722;8.110;2023-05-10T06:46:58;2.70;;;2.10;;
7471;SDS011;3777;48.722;8.110;2023-05-10T06:49:25;3.17;;;2.30;;
7471;SDS011;3777;48.722;8.110;2023-05-10T06:51:54;2.10;;;1.90;;
7471;SDS011;3777;48.722;8.110;2023-05-10T06:54:21;3.50;;;2.10;;
7471;SDS011;3777;48.722;8.110;2023-05-10T06:56:48;3.10;;;1.97;;
7471;SDS011;3777;48.722;8.110;2023-05-10T06:59:15;3.57;;;2.13;;
7471;SDS011;3777;48.722;8.110;2023-05-10T07:01:44;3.83;;;2.10;;
7471;SDS011;3777;48.722;8.110;2023-05-10T07:04:11;3.07;;;2.03;;
7471;SDS011;3777;48.722;8.110;2023-05-10T07:06:38;4.20;;;2.13;;
7471;SDS011;3777;48.722;8.110;2023-05-10T07:09:06;2.50;;;2.20;;
7471;SDS011;3777;48.722;8.110;2023-05-10T07:11:33;6.17;;;2.20;;
7471;SDS011;3777;48.722;8.110;2023-05-10T07:14:01;3.60;;;2.03;;
7471;SDS011;3777;48.722;8.110;2023-05-10T07:16:28;4.77;;;2.10;;
7471;SDS011;3777;48.722;8.110;2023-05-10T07:18:55;5.33;;;2.50;;
7471;SDS011;3777;48.722;8.110;2023-05-10T07:21:21;3.57;;;2.50;;
7471;SDS011;3777;48.722;8.110;2023-05-10T07:23:49;5.03;;;2.40;;
7471;SDS011;3777;48.722;8.110;2023-05-10T07:26:17;5.23;;;2.33;;
7471;SDS011;3777;48.722;8.110;2023-05-10T07:28:45;4.03;;;2.00;;
7471;SDS011;3777;48.722;8.110;2023-05-10T07:31:13;2.53;;;2.33;;
7471;SDS011;3777;48.722;8.110;2023-05-10T07:33:40;2.73;;;1.77;;
7471;SDS011;3777;48.722;8.110;2023-05-10T07:36:07;2.23;;;1.97;;
7471;SDS011;3777;48.722;8.110;2023-05-10T07:38:34;2.70;;;1.83;;
7471;SDS011;3777;48.722;8.110;2023-05-10T07:41:01;4.30;;;2.17;;
7471;SDS011;3777;48.722;8.110;2023-05-10T07:43:29;3.30;;;2.43;;
7471;SDS011;3777;48.722;8.110;2023-05-10T07:45:56;2.30;;;2.10;;
7471;SDS011;3777;48.722;8.110;2023-05-10T07:48:24;2.10;;;1.90;;
7471;SDS011;3777;48.722;8.110;2023-05-10T07:50:51;5.10;;;2.10;;
7471;SDS011;3777;48.722;8.110;2023-05-10T07:53:18;3.43;;;1.93;;
7471;SDS011;3777;48.722;8.110;2023-05-10T07:55:49;1.90;;;1.70;;
7471;SDS011;3777;48.722;8.110;2023-05-10T07:58:16;2.57;;;1.63;;
7471;SDS011;3777;48.722;8.110;2023-05-10T08:00:45;2.53;;;1.60;;
7471;SDS011;3777;48.722;8.110;2023-05-10T08:03:12;2.10;;;1.63;;
7471;SDS011;3777;48.722;8.110;2023-05-10T08:05:39;2.60;;;1.50;;
7471;SDS011;3777;48.722;8.110;2023-05-10T08:08:06;3.43;;;1.60;;
7471;SDS011;3777;48.722;8.110;2023-05-10T08:10:33;1.40;;;1.30;;
7471;SDS011;3777;48.722;8.110;2023-05-10T08:13:00;2.53;;;1.40;;
7471;SDS011;3777;48.722;8.110;2023-05-10T08:15:27;3.70;;;1.47;;
7471;SDS011;3777;48.722;8.110;2023-05-10T08:17:55;1.50;;;1.27;;
7471;SDS011;3777;48.722;8.110;2023-05-10T08:20:22;1.50;;;1.30;;
7471;SDS011;3777;48.722;8.110;2023-05-10T08:22:49;1.60;;;1.50;;
7471;SDS011;3777;48.722;8.110;2023-05-10T08:25:16;2.33;;;1.23;;
7471;SDS011;3777;48.722;8.110;2023-05-10T08:27:43;3.20;;;1.30;;
7471;SDS011;3777;48.722;8.110;2023-05-10T08:30:10;4.27;;;1.53;;
7471;SDS011;3777;48.722;8.110;2023-05-10T08:32:38;1.50;;;1.40;;
7471;SDS011;3777;48.722;8.110;2023-05-10T08:35:06;1.23;;;1.13;;
7471;SDS011;3777;48.722;8.110;2023-05-10T08:37:33;1.30;;;1.20;;
7471;SDS011;3777;48.722;8.110;2023-05-10T08:40:00;1.80;;;1.20;;
7471;SDS011;3777;48.722;8.110;2023-05-10T08:42:28;1.40;;;1.30;;
7471;SDS011;3777;48.722;8.110;2023-05-10T08:45:00;2.13;;;1.20;;
7471;SDS011;3777;48.722;8.110;2023-05-10T08:47:28;3.57;;;1.43;;
7471;SDS011;3777;48.722;8.110;2023-05-10T08:49:56;1.47;;;1.33;;
7471;SDS011;3777;48.722;8.110;2023-05-10T08:52:26;1.70;;;1.60;;
7471;SDS011;3777;48.722;8.110;2023-05-10T08:54:54;2.80;;;1.40;;
7471;SDS011;3777;48.722;8.110;2023-05-10T08:57:21;1.50;;;1.30;;
7471;SDS011;3777;48.722;8.110;2023-05-10T08:59:48;1.37;;;0.90;;
7471;SDS011;3777;48.722;8.110;2023-05-10T09:02:15;1.40;;;1.10;;
7471;SDS011;3777;48.722;8.110;2023-05-10T09:04:44;1.90;;;1.40;;
7471;SDS011;3777;48.722;8.110;2023-05-10T09:07:11;1.57;;;1.23;;
7471;SDS011;3777;48.722;8.110;2023-05-10T09:09:40;1.60;;;1.13;;
7471;SDS011;3777;48.722;8.110;2023-05-10T09:12:07;1.83;;;1.33;;
7471;SDS011;3777;48.722;8.110;2023-05-10T09:14:36;2.47;;;1.27;;
7471;SDS011;3777;48.722;8.110;2023-05-10T09:17:04;3.50;;;1.40;;
7471;SDS011;3777;48.722;8.110;2023-05-10T09:19:31;1.37;;;1.20;;
7471;SDS011;3777;48.722;8.110;2023-05-10T09:21:58;1.93;;;1.40;;
7471;SDS011;3777;48.722;8.110;2023-05-10T09:24:25;1.80;;;1.40;;
7471;SDS011;3777;48.722;8.110;2023-05-10T09:26:54;2.27;;;1.60;;
7471;SDS011;3777;48.722;8.110;2023-05-10T09:29:23;2.10;;;1.60;;
7471;SDS011;3777;48.722;8.110;2023-05-10T09:31:50;1.57;;;1.47;;
7471;SDS011;3777;48.722;8.110;2023-05-10T09:34:20;2.10;;;1.43;;
7471;SDS011;3777;48.722;8.110;2023-05-10T09:36:50;1.90;;;1.40;;
7471;SDS011;3777;48.722;8.110;2023-05-10T09:39:17;2.13;;;1.30;;
7471;SDS011;3777;48.722;8.110;2023-05-10T09:41:45;2.33;;;1.60;;
7471;SDS011;3777;48.722;8.110;2023-05-10T09:44:14;3.83;;;1.40;;
7471;SDS011;3777;48.722;8.110;2023-05-10T09:46:48;1.70;;;1.40;;
7471;SDS011;3777;48.722;8.110;2023-05-10T09:49:16;2.83;;;1.50;;
7471;SDS011;3777;48.722;8.110;2023-05-10T09:51:43;2.60;;;1.50;;
7471;SDS011;3777;48.722;8.110;2023-05-10T09:54:10;2.67;;;1.40;;
7471;SDS011;3777;48.722;8.110;2023-05-10T09:56:39;2.63;;;1.40;;
7471;SDS011;3777;48.722;8.110;2023-05-10T09:59:06;1.73;;;1.40;;
7471;SDS011;3777;48.722;8.110;2023-05-10T10:01:37;2.77;;;1.53;;
7471;SDS011;3777;48.722;8.110;2023-05-10T10:04:04;2.50;;;1.60;;
7471;SDS011;3777;48.722;8.110;2023-05-10T10:06:35;2.80;;;1.73;;
7471;SDS011;3777;48.722;8.110;2023-05-10T10:09:03;2.43;;;1.60;;
7471;SDS011;3777;48.722;8.110;2023-05-10T10:11:32;2.93;;;1.60;;
7471;SDS011;3777;48.722;8.110;2023-05-10T10:14:00;3.93;;;1.80;;
7471;SDS011;3777;48.722;8.110;2023-05-10T10:16:27;3.73;;;1.87;;
7471;SDS011;3777;48.722;8.110;2023-05-10T10:18:57;1.73;;;1.60;;
7471;SDS011;3777;48.722;8.110;2023-05-10T10:21:24;5.10;;;1.70;;
7471;SDS011;3777;48.722;8.110;2023-05-10T10:23:51;1.67;;;1.53;;
7471;SDS011;3777;48.722;8.110;2023-05-10T10:26:19;3.83;;;1.73;;
7471;SDS011;3777;48.722;8.110;2023-05-10T10:28:48;2.17;;;1.50;;
7471;SDS011;3777;48.722;8.110;2023-05-10T10:31:24;3.40;;;1.70;;
7471;SDS011;3777;48.722;8.110;2023-05-10T10:34:03;3.67;;;1.80;;
7471;SDS011;3777;48.722;8.110;2023-05-10T10:36:33;2.97;;;1.70;;
7471;SDS011;3777;48.722;8.110;2023-05-10T10:39:08;2.50;;;1.60;;
7471;SDS011;3777;48.722;8.110;2023-05-10T10:41:37;3.17;;;1.70;;
7471;SDS011;3777;48.722;8.110;2023-05-10T10:44:30;2.83;;;1.40;;
7471;SDS011;3777;48.722;8.110;2023-05-10T10:50:05;1.90;;;1.70;;
7471;SDS011;3777;48.722;8.110;2023-05-10T10:52:33;5.60;;;1.60;;
7471;SDS011;3777;48.722;8.110;2023-05-10T10:55:02;1.80;;;1.43;;
7471;SDS011;3777;48.722;8.110;2023-05-10T10:57:31;1.83;;;1.40;;
7471;SDS011;3777;48.722;8.110;2023-05-10T11:00:18;2.47;;;1.57;;
7471;SDS011;3777;48.722;8.110;2023-05-10T11:02:53;2.17;;;1.30;;
7471;SDS011;3777;48.722;8.110;2023-05-10T11:08:13;2.67;;;1.37;;
7471;SDS011;3777;48.722;8.110;2023-05-10T11:10:52;2.80;;;1.37;;
7471;SDS011;3777;48.722;8.110;2023-05-10T11:13:28;3.10;;;1.33;;
7471;SDS011;3777;48.722;8.110;2023-05-10T11:15:56;2.03;;;1.60;;
7471;SDS011;3777;48.722;8.110;2023-05-10T11:18:24;4.43;;;1.40;;
7471;SDS011;3777;48.722;8.110;2023-05-10T11:20:55;2.77;;;1.20;;
7471;SDS011;3777;48.722;8.110;2023-05-10T11:23:28;3.70;;;1.10;;
7471;SDS011;3777;48.722;8.110;2023-05-10T11:25:56;2.65;;;1.10;;
7471;SDS011;3777;48.722;8.110;2023-05-10T11:28:23;1.20;;;1.00;;
7471;SDS011;3777;48.722;8.110;2023-05-10T11:30:51;2.33;;;1.02;;
7471;SDS011;3777;48.722;8.110;2023-05-10T11:33:19;1.17;;;1.00;;
7471;SDS011;3777;48.722;8.110;2023-05-10T11:35:46;1.03;;;0.90;;
7471;SDS011;3777;48.722;8.110;2023-05-10T11:38:14;2.80;;;0.90;;
7471;SDS011;3777;48.722;8.110;2023-05-10T11:40:42;3.63;;;1.30;;
7471;SDS011;3777;48.722;8.110;2023-05-10T11:43:09;1.57;;;1.10;;
7471;SDS011;3777;48.722;8.110;2023-05-10T11:45:37;2.35;;;1.00;;
7471;SDS011;3777;48.722;8.110;2023-05-10T11:48:04;1.23;;;1.00;;
7471;SDS011;3777;48.722;8.110;2023-05-10T11:50:31;2.20;;;0.95;;
7471;SDS011;3777;48.722;8.110;2023-05-10T11:52:58;1.45;;;1.00;;
7471;SDS011;3777;48.722;8.110;2023-05-10T11:55:27;1.20;;;0.90;;
7471;SDS011;3777;48.722;8.110;2023-05-10T11:57:55;1.38;;;0.75;;
7471;SDS011;3777;48.722;8.110;2023-05-10T12:00:27;1.25;;;1.00;;
7471;SDS011;3777;48.722;8.110;2023-05-10T12:02:54;3.35;;;1.00;;
7471;SDS011;3777;48.722;8.110;2023-05-10T12:05:21;1.00;;;0.80;;
7471;SDS011;3777;48.722;8.110;2023-05-10T12:07:48;2.03;;;0.95;;
7471;SDS011;3777;48.722;8.110;2023-05-10T12:10:15;1.75;;;0.90;;
7471;SDS011;3777;48.722;8.110;2023-05-10T12:12:44;2.45;;;1.00;;
7471;SDS011;3777;48.722;8.110;2023-05-10T12:15:17;3.83;;;1.20;;
7471;SDS011;3777;48.722;8.110;2023-05-10T12:17:45;0.93;;;0.82;;
7471;SDS011;3777;48.722;8.110;2023-05-10T12:20:12;1.00;;;0.90;;
7471;SDS011;3777;48.722;8.110;2023-05-10T12:22:40;1.67;;;0.90;;
7471;SDS011;3777;48.722;8.110;2023-05-10T12:25:09;3.30;;;1.00;;
7471;SDS011;3777;48.722;8.110;2023-05-10T12:27:36;1.15;;;1.00;;
7471;SDS011;3777;48.722;8.110;2023-05-10T12:30:05;1.10;;;1.00;;
7471;SDS011;3777;48.722;8.110;2023-05-10T12:32:40;1.80;;;1.00;;
7471;SDS011;3777;48.722;8.110;2023-05-10T12:35:07;1.27;;;0.98;;
7471;SDS011;3777;48.722;8.110;2023-05-10T12:37:35;1.90;;;1.00;;
7471;SDS011;3777;48.722;8.110;2023-05-10T12:40:05;1.60;;;1.00;;
7471;SDS011;3777;48.722;8.110;2023-05-10T12:42:36;1.02;;;0.93;;
7471;SDS011;3777;48.722;8.110;2023-05-10T12:45:07;2.67;;;0.95;;
7471;SDS011;3777;48.722;8.110;2023-05-10T12:47:34;1.25;;;1.00;;
7471;SDS011;3777;48.722;8.110;2023-05-10T12:50:02;2.03;;;1.00;;
7471;SDS011;3777;48.722;8.110;2023-05-10T12:52:30;1.50;;;1.00;;
7471;SDS011;3777;48.722;8.110;2023-05-10T12:54:58;1.05;;;0.85;;
7471;SDS011;3777;48.722;8.110;2023-05-10T12:57:25;2.30;;;1.10;;
7471;SDS011;3777;48.722;8.110;2023-05-10T12:59:52;1.13;;;1.02;;
7471;SDS011;3777;48.722;8.110;2023-05-10T13:02:21;1.15;;;1.00;;
7471;SDS011;3777;48.722;8.110;2023-05-10T13:04:48;1.23;;;1.08;;
7471;SDS011;3777;48.722;8.110;2023-05-10T13:07:15;2.30;;;0.90;;
7471;SDS011;3777;48.722;8.110;2023-05-10T13:09:42;1.07;;;0.97;;
7471;SDS011;3777;48.722;8.110;2023-05-10T13:12:09;1.45;;;0.90;;
7471;SDS011;3777;48.722;8.110;2023-05-10T13:14:36;1.38;;;0.90;;
7471;SDS011;3777;48.722;8.110;2023-05-10T13:17:05;1.80;;;0.90;;
7471;SDS011;3777;48.722;8.110;2023-05-10T13:19:33;2.40;;;1.10;;
7471;SDS011;3777;48.722;8.110;2023-05-10T13:22:00;1.90;;;1.10;;
7471;SDS011;3777;48.722;8.110;2023-05-10T13:24:27;1.48;;;1.00;;
7471;SDS011;3777;48.722;8.110;2023-05-10T13:26:54;1.63;;;0.90;;
7471;SDS011;3777;48.722;8.110;2023-05-10T13:29:21;1.25;;;1.00;;
7471;SDS011;3777;48.722;8.110;2023-05-10T13:31:48;1.35;;;0.95;;
7471;SDS011;3777;48.722;8.110;2023-05-10T13:34:15;1.25;;;0.88;;
7471;SDS011;3777;48.722;8.110;2023-05-10T13:36:46;1.27;;;0.90;;
7471;SDS011;3777;48.722;8.110;2023-05-10T13:39:14;3.05;;;0.93;;
7471;SDS011;3777;48.722;8.110;2023-05-10T13:41:41;3.90;;;1.10;;
7471;SDS011;3777;48.722;8.110;2023-05-10T13:44:08;2.15;;;0.90;;
7471;SDS011;3777;48.722;8.110;2023-05-10T13:46:37;1.52;;;1.10;;
7471;SDS011;3777;48.722;8.110;2023-05-10T13:49:07;2.15;;;1.08;;
7471;SDS011;3777;48.722;8.110;2023-05-10T13:51:35;1.20;;;0.90;;
7471;SDS011;3777;48.722;8.110;2023-05-10T13:54:03;1.80;;;1.05;;
7471;SDS011;3777;48.722;8.110;2023-05-10T13:56:30;1.52;;;1.10;;
7471;SDS011;3777;48.722;8.110;2023-05-10T13:58:57;1.15;;;0.95;;
7471;SDS011;3777;48.722;8.110;2023-05-10T14:01:24;1.17;;;0.90;;
7471;SDS011;3777;48.722;8.110;2023-05-10T14:03:51;1.85;;;1.00;;
7471;SDS011;3777;48.722;8.110;2023-05-10T14:06:18;0.98;;;0.90;;
7471;SDS011;3777;48.722;8.110;2023-05-10T14:08:45;1.15;;;1.00;;
7471;SDS011;3777;48.722;8.110;2023-05-10T14:11:13;2.55;;;1.10;;
7471;SDS011;3777;48.722;8.110;2023-05-10T14:13:40;1.10;;;1.00;;
7471;SDS011;3777;48.722;8.110;2023-05-10T14:16:07;1.35;;;0.80;;
7471;SDS011;3777;48.722;8.110;2023-05-10T14:18:34;1.65;;;0.90;;
7471;SDS011;3777;48.722;8.110;2023-05-10T14:21:01;2.00;;;1.00;;
7471;SDS011;3777;48.722;8.110;2023-05-10T14:23:29;1.75;;;1.00;;
7471;SDS011;3777;48.722;8.110;2023-05-10T14:25:56;1.05;;;0.85;;
7471;SDS011;3777;48.722;8.110;2023-05-10T14:28:25;1.70;;;0.80;;
7471;SDS011;3777;48.722;8.110;2023-05-10T14:30:51;3.25;;;1.02;;
7471;SDS011;3777;48.722;8.110;2023-05-10T14:33:18;1.77;;;0.90;;
7471;SDS011;3777;48.722;8.110;2023-05-10T14:35:46;3.50;;;0.88;;
7471;SDS011;3777;48.722;8.110;2023-05-10T14:38:13;1.05;;;0.95;;
7471;SDS011;3777;48.722;8.110;2023-05-10T14:40:40;2.58;;;0.88;;
7471;SDS011;3777;48.722;8.110;2023-05-10T14:43:07;1.42;;;1.00;;
7471;SDS011;3777;48.722;8.110;2023-05-10T14:45:35;2.10;;;0.95;;
7471;SDS011;3777;48.722;8.110;2023-05-10T14:48:02;2.67;;;1.10;;
7471;SDS011;3777;48.722;8.110;2023-05-10T14:50:30;1.60;;;1.00;;
7471;SDS011;3777;48.722;8.110;2023-05-10T14:52:58;2.00;;;1.00;;
7471;SDS011;3777;48.722;8.110;2023-05-10T14:55:25;2.25;;;0.93;;
7471;SDS011;3777;48.722;8.110;2023-05-10T14:57:52;1.85;;;0.90;;
7471;SDS011;3777;48.722;8.110;2023-05-10T15:00:19;1.02;;;0.88;;
7471;SDS011;3777;48.722;8.110;2023-05-10T15:02:48;2.00;;;1.10;;
7471;SDS011;3777;48.722;8.110;2023-05-10T15:05:15;1.58;;;0.80;;
7471;SDS011;3777;48.722;8.110;2023-05-10T15:07:42;1.10;;;1.00;;
7471;SDS011;3777;48.722;8.110;2023-05-10T15:10:10;2.23;;;0.83;;
7471;SDS011;3777;48.722;8.110;2023-05-10T15:12:38;1.60;;;0.97;;
7471;SDS011;3777;48.722;8.110;2023-05-10T15:15:05;1.17;;;0.80;;
7471;SDS011;3777;48.722;8.110;2023-05-10T15:17:33;1.57;;;0.87;;
7471;SDS011;3777;48.722;8.110;2023-05-10T15:20:01;1.30;;;0.80;;
7471;SDS011;3777;48.722;8.110;2023-05-10T15:22:29;2.40;;;0.90;;
7471;SDS011;3777;48.722;8.110;2023-05-10T15:24:56;1.17;;;0.90;;
7471;SDS011;3777;48.722;8.110;2023-05-10T15:27:23;2.23;;;0.80;;
7471;SDS011;3777;48.722;8.110;2023-05-10T15:29:50;2.17;;;0.80;;
7471;SDS011;3777;48.722;8.110;2023-05-10T15:32:17;0.80;;;0.80;;